Time;durP1;ratioP1;P1;durP2;ratioP2;P2;SDS_P1;SDS_P2;PMS_P1;PMS_P2;Temp;Humidity;BMP_temperature;BMP_pressure;BME280_temperature;BME280_humidity;BME280_pressure;Samples;Min_cycle;Max_cycle;Signal;HPM_P1;HPM_P2
2022/07/27 00:00:12;;;;;;;2.33;1.60;;;;;;;16.16;81.71;93159.25;2094830;28;20104;-79
2022/07/27 00:01:15;;;;;;;7.43;1.80;;;;;;;16.07;83.63;93162.72;2090721;28;20062;-78
2022/07/27 00:02:15;;;;;;;4.43;1.45;;;;;;;16.18;81.09;93170.34;2089816;28;20021;-79
2022/07/27 00:03:16;;;;;;;3.15;1.65;;;;;;;16.23;80.68;93172.44;2089829;28;20547;-78
2022/07/27 00:04:20;;;;;;;3.22;1.80;;;;;;;16.18;81.26;93172.28;2089851;28;20033;-78
2022/07/27 00:05:26;;;;;;;4.18;1.77;;;;;;;16.15;82.29;93171.22;2102138;28;20457;-78
2022/07/27 00:06:27;;;;;;;2.42;1.67;;;;;;;16.09;82.93;93168.38;2110479;27;20023;-78
2022/07/27 00:07:28;;;;;;;3.15;1.63;;;;;;;16.00;84.00;93167.63;2118728;27;20461;-79
2022/07/27 00:08:29;;;;;;;3.25;1.70;;;;;;;16.00;85.41;93160.31;2122785;27;20019;-79
2022/07/27 00:09:30;;;;;;;4.40;1.50;;;;;;;15.98;83.70;93156.53;2110720;28;20422;-78
2022/07/27 00:10:32;;;;;;;3.63;2.17;;;;;;;15.99;83.64;93156.13;2105962;28;20070;-79
2022/07/27 00:11:33;;;;;;;4.18;1.70;;;;;;;15.91;82.79;93157.59;2118570;27;20019;-78
2022/07/27 00:12:34;;;;;;;1.90;1.70;;;;;;;15.95;83.29;93152.81;2114987;27;20058;-79
2022/07/27 00:13:35;;;;;;;7.95;2.10;;;;;;;15.83;85.04;93156.38;2108858;28;20016;-79
2022/07/27 00:14:36;;;;;;;2.47;1.67;;;;;;;15.76;85.87;93149.38;2114750;27;20055;-79
2022/07/27 00:15:37;;;;;;;6.07;1.70;;;;;;;15.60;86.97;93153.03;2105888;28;20016;-79
2022/07/27 00:16:38;;;;;;;5.38;1.73;;;;;;;15.47;88.34;93157.81;2097507;28;20051;-79
2022/07/27 00:17:39;;;;;;;2.75;1.55;;;;;;;15.39;88.76;93150.44;2097938;28;20048;-78
2022/07/27 00:18:40;;;;;;;1.52;1.20;;;;;;;15.43;87.27;93151.81;2093585;28;20718;-79
2022/07/27 00:19:41;;;;;;;2.88;1.80;;;;;;;15.35;88.61;93162.09;2097856;28;20028;-78
2022/07/27 00:20:42;;;;;;;3.83;1.67;;;;;;;15.41;88.29;93162.28;2103046;28;20032;-78
2022/07/27 00:21:43;;;;;;;1.73;1.40;;;;;;;15.46;88.09;93156.31;2106374;28;20093;-79
2022/07/27 00:22:43;;;;;;;4.20;1.50;;;;;;;15.20;90.08;93166.56;2120501;27;20019;-78
2022/07/27 00:23:44;;;;;;;3.55;1.80;;;;;;;15.14;90.66;93156.78;2120480;27;20023;-79
2022/07/27 00:24:46;;;;;;;3.38;1.90;;;;;;;15.16;90.66;93157.13;2114615;28;20046;-78
2022/07/27 00:25:57;;;;;;;3.05;1.85;;;;;;;15.10;92.05;93160.41;2097751;28;20841;-78
2022/07/27 00:26:58;;;;;;;2.85;1.80;;;;;;;15.04;92.04;93156.75;2104331;27;20107;-79
2022/07/27 00:27:59;;;;;;;2.45;1.70;;;;;;;15.09;92.39;93150.06;2122599;27;20475;-78
2022/07/27 00:28:59;;;;;;;4.65;1.58;;;;;;;15.12;91.18;93159.94;2113138;28;20049;-78
2022/07/27 00:30:00;;;;;;;3.17;1.73;;;;;;;15.15;91.29;93150.25;2104442;28;20020;-79
2022/07/27 00:31:01;;;;;;;4.20;1.88;;;;;;;15.19;91.17;93153.53;2097721;28;20409;-79
2022/07/27 00:32:02;;;;;;;4.38;1.95;;;;;;;15.32;88.82;93152.25;2099975;28;20054;-79
2022/07/27 00:33:04;;;;;;;3.97;1.70;;;;;;;15.43;88.12;93151.81;2113196;28;20058;-79
2022/07/27 00:34:05;;;;;;;4.13;1.70;;;;;;;15.44;88.68;93144.47;2098316;28;20021;-79
2022/07/27 00:35:07;;;;;;;7.25;2.17;;;;;;;15.40;89.97;93152.69;2101975;28;20032;-79
2022/07/27 00:36:09;;;;;;;3.08;1.65;;;;;;;15.40;88.38;93147.31;2105925;28;20019;-79
2022/07/27 00:37:09;;;;;;;4.65;1.73;;;;;;;15.43;88.63;93141.03;2097703;28;20032;-79
2022/07/27 00:38:10;;;;;;;3.50;1.50;;;;;;;15.53;87.93;93139.09;2114254;28;20431;-78
2022/07/27 00:39:11;;;;;;;1.60;1.50;;;;;;;15.59;86.06;93143.47;2105932;28;20016;-79
2022/07/27 00:40:13;;;;;;;4.35;1.58;;;;;;;15.60;nan;93144.97;2097825;28;20038;-79
2022/07/27 00:41:14;;;;;;;2.50;1.67;;;;;;;15.67;86.93;93133.19;2105963;28;20024;-79
2022/07/27 00:42:15;;;;;;;4.90;1.70;;;;;;;15.68;89.38;93145.47;2091841;28;20021;-79
2022/07/27 00:43:15;;;;;;;2.42;1.70;;;;;;;15.62;89.25;93144.50;2114007;28;20030;-79
2022/07/27 00:44:31;;;;;;;2.17;1.75;;;;;;;15.56;91.57;93144.34;2114549;28;20127;-79
2022/07/27 00:45:32;;;;;;;3.55;1.60;;;;;;;15.61;89.79;93141.06;2113027;28;20063;-79
2022/07/27 00:46:33;;;;;;;7.60;1.90;;;;;;;15.52;90.79;93143.00;2114005;28;20028;-78
2022/07/27 00:47:34;;;;;;;2.42;1.65;;;;;;;15.52;90.98;93143.75;2089437;28;20055;-79
2022/07/27 00:48:35;;;;;;;4.28;1.63;;;;;;;15.59;90.73;93140.78;2089122;28;20021;-79
2022/07/27 00:49:36;;;;;;;3.70;2.17;;;;;;;15.67;89.32;93137.81;2089523;28;20443;-78
2022/07/27 00:50:39;;;;;;;3.08;1.70;;;;;;;15.65;88.81;93132.88;2112272;27;20027;-79
2022/07/27 00:51:40;;;;;;;9.32;2.20;;;;;;;15.62;89.25;93133.72;2113186;28;20020;-78
2022/07/27 00:52:41;;;;;;;2.60;1.92;;;;;;;15.63;90.76;93129.84;2097607;28;20032;-79
2022/07/27 00:53:42;;;;;;;3.97;1.50;;;;;;;15.66;87.48;93139.00;2113283;28;20055;-79
2022/07/27 00:54:44;;;;;;;3.42;1.70;;;;;;;15.70;90.96;93137.66;2104971;28;20579;-79
2022/07/27 00:55:45;;;;;;;3.53;1.67;;;;;;;15.71;86.10;93133.00;2084738;28;20029;-79
2022/07/27 00:56:46;;;;;;;4.57;2.13;;;;;;;15.74;87.52;93138.25;2095062;28;20021;-79
2022/07/27 00:57:48;;;;;;;7.25;2.20;;;;;;;15.80;85.12;93136.50;2092411;28;20028;-79
2022/07/27 00:58:51;;;;;;;2.40;1.70;;;;;;;15.79;87.92;93136.91;2093347;28;20564;-79
2022/07/27 00:59:53;;;;;;;4.35;2.00;;;;;;;15.68;90.03;93129.28;2097712;28;20052;-79
2022/07/27 01:00:54;;;;;;;6.65;1.73;;;;;;;15.69;88.49;93128.09;2096404;28;20111;-79
2022/07/27 01:01:55;;;;;;;4.05;1.67;;;;;;;15.72;86.07;93126.44;2105810;28;20028;-79
2022/07/27 01:02:56;;;;;;;3.58;2.10;;;;;;;15.83;85.42;93129.44;2109872;28;20035;-79
2022/07/27 01:03:57;;;;;;;4.22;1.80;;;;;;;15.88;83.74;93125.41;2105765;28;20024;-79
2022/07/27 01:04:57;;;;;;;4.03;2.20;;;;;;;15.89;84.95;93126.88;2114040;28;20075;-79
2022/07/27 01:05:58;;;;;;;2.65;1.77;;;;;;;15.99;83.72;93123.00;2105695;28;20024;-78
2022/07/27 01:07:02;;;;;;;4.43;1.70;;;;;;;15.81;87.81;93129.16;2097281;28;20473;-79
2022/07/27 01:08:05;;;;;;;3.28;1.63;;;;;;;15.80;88.10;93124.94;2098211;28;20170;-79
2022/07/27 01:10:25;;;;;;;3.90;2.08;;;;;;;15.74;86.41;93116.69;2109152;28;20020;-79
2022/07/27 01:11:26;;;;;;;4.10;1.80;;;;;;;15.77;88.09;93117.75;2097361;28;20024;-79
2022/07/27 01:12:30;;;;;;;5.38;1.95;;;;;;;15.82;87.11;93106.38;2095944;28;20396;-79
2022/07/27 01:13:31;;;;;;;3.40;1.67;;;;;;;15.82;86.23;93109.81;2106446;27;20058;-79
2022/07/27 01:14:32;;;;;;;8.35;1.67;;;;;;;15.81;86.69;93115.66;2118484;27;20134;-79
2022/07/27 01:15:41;;;;;;;4.53;1.95;;;;;;;15.76;87.73;93108.94;2102306;28;20031;-79
2022/07/27 01:16:42;;;;;;;4.22;1.70;;;;;;;15.70;88.24;93115.34;2096889;28;20485;-79
2022/07/27 01:17:43;;;;;;;4.28;2.30;;;;;;;15.61;91.09;93116.81;2088853;28;20401;-80
2022/07/27 01:18:44;;;;;;;4.30;1.65;;;;;;;15.55;92.48;93115.16;2094069;28;20079;-79
2022/07/27 01:19:46;;;;;;;5.28;1.65;;;;;;;15.49;90.98;93112.28;2096396;28;20032;-78
2022/07/27 01:20:46;;;;;;;3.15;1.60;;;;;;;15.49;91.39;93112.28;2097027;28;20420;-79
2022/07/27 01:21:47;;;;;;;2.55;1.63;;;;;;;15.49;93.01;93112.28;2097264;28;20056;-79
2022/07/27 01:22:48;;;;;;;4.50;1.83;;;;;;;15.48;90.08;93113.50;2097387;28;20035;-79
2022/07/27 01:23:50;;;;;;;4.60;1.88;;;;;;;15.51;89.24;93106.47;2097016;28;20543;-78
2022/07/27 01:24:51;;;;;;;3.58;2.20;;;;;;;15.51;87.87;93109.91;2111175;28;20024;-79
2022/07/27 01:26:26;;;;;;;3.40;1.90;;;;;;;15.51;88.98;93106.47;2109436;28;20020;-79
2022/07/27 01:27:27;;;;;;;2.45;1.70;;;;;;;15.46;90.85;93107.81;2108445;28;20019;-79
2022/07/27 01:28:28;;;;;;;4.63;1.63;;;;;;;15.44;90.90;93115.59;2105767;28;20020;-79
2022/07/27 01:29:31;;;;;;;6.03;2.15;;;;;;;15.49;89.73;93098.81;2103768;28;20552;-79
2022/07/27 01:30:34;;;;;;;7.22;1.92;;;;;;;15.47;88.53;93109.31;2097313;28;20021;-79
2022/07/27 01:31:35;;;;;;;2.47;1.55;;;;;;;15.43;89.76;93103.31;2106401;28;20020;-79
2022/07/27 01:32:36;;;;;;;2.50;1.63;;;;;;;15.43;89.62;93097.19;2104950;28;20012;-79
2022/07/27 01:33:37;;;;;;;8.45;2.30;;;;;;;15.49;89.98;93100.78;2100788;28;20028;-79
2022/07/27 01:34:38;;;;;;;4.82;2.03;;;;;;;15.59;90.56;93099.59;2113164;28;20106;-78
2022/07/27 01:35:39;;;;;;;3.47;1.80;;;;;;;15.56;90.83;93098.56;2102843;28;20082;-79
2022/07/27 01:36:47;;;;;;;3.25;1.73;;;;;;;15.43;91.85;93092.53;2101111;28;20865;-79
2022/07/27 01:37:48;;;;;;;4.22;1.80;;;;;;;15.33;92.91;93093.72;2104898;28;20034;-79
2022/07/27 01:38:49;;;;;;;5.75;2.13;;;;;;;15.25;94.77;93095.97;2105288;28;20030;-79
2022/07/27 01:39:50;;;;;;;3.88;2.13;;;;;;;15.28;94.41;93097.03;2107148;28;20488;-79
2022/07/27 01:40:52;;;;;;;3.42;1.85;;;;;;;15.21;94.65;93098.03;2113718;28;20016;-79
2022/07/27 01:41:53;;;;;;;4.00;1.90;;;;;;;15.19;93.65;93097.75;2105632;28;20024;-79
2022/07/27 01:42:55;;;;;;;4.00;1.88;;;;;;;15.20;93.63;93093.84;2105193;28;20022;-79
2022/07/27 01:43:56;;;;;;;5.40;2.22;;;;;;;15.29;91.06;93099.25;2107435;28;20024;-78
2022/07/27 01:44:57;;;;;;;3.25;1.90;;;;;;;15.31;90.38;93088.03;2114084;28;20028;-79
2022/07/27 01:45:58;;;;;;;3.90;2.25;;;;;;;15.31;91.96;93090.72;2114875;27;20120;-79
2022/07/27 01:46:59;;;;;;;4.55;2.28;;;;;;;15.30;91.39;93092.66;2099863;28;20033;-79
2022/07/27 01:48:00;;;;;;;4.45;2.00;;;;;;;15.25;92.24;93089.81;2097078;28;20028;-79
2022/07/27 01:49:02;;;;;;;3.65;1.58;;;;;;;15.23;92.18;93082.19;2099940;28;20024;-79
2022/07/27 01:50:04;;;;;;;3.85;1.73;;;;;;;15.11;92.87;93089.19;2105654;28;20032;-79
2022/07/27 01:51:05;;;;;;;4.45;2.00;;;;;;;15.12;93.12;93095.31;2091154;28;20044;-79
2022/07/27 01:52:06;;;;;;;2.42;1.88;;;;;;;15.20;91.97;93091.16;2097236;28;20028;-79
2022/07/27 01:53:07;;;;;;;2.70;1.92;;;;;;;15.21;91.41;93091.91;2105447;28;20499;-79
2022/07/27 01:54:08;;;;;;;4.13;1.60;;;;;;;15.07;95.11;93088.59;2097189;28;20508;-78
2022/07/27 01:55:10;;;;;;;3.33;1.85;;;;;;;15.02;94.91;93083.78;2080618;28;20482;-79
2022/07/27 01:56:12;;;;;;;4.30;1.88;;;;;;;14.89;96.74;93085.84;2103909;28;20024;-78
2022/07/27 01:57:21;;;;;;;3.80;1.90;;;;;;;14.89;97.60;93087.78;2096835;28;20111;-79
2022/07/27 01:58:22;;;;;;;3.67;2.00;;;;;;;14.82;96.54;93088.78;2097852;28;20025;-79
2022/07/27 01:59:23;;;;;;;6.97;2.03;;;;;;;14.78;97.14;93088.94;2107871;28;20020;-79
2022/07/27 02:00:24;;;;;;;3.35;1.98;;;;;;;14.71;99.03;93091.91;2113339;28;20511;-79
2022/07/27 02:01:25;;;;;;;3.63;1.90;;;;;;;14.76;98.13;93090.56;2103707;28;20404;-78
2022/07/27 02:02:26;;;;;;;5.00;2.00;;;;;;;14.71;97.46;93099.22;2105306;28;20103;-78
2022/07/27 02:03:27;;;;;;;2.55;2.28;;;;;;;14.72;96.83;93095.34;2097188;28;20505;-79
2022/07/27 02:04:27;;;;;;;4.22;1.60;;;;;;;14.77;96.41;93092.06;2111803;28;20169;-79
2022/07/27 02:05:28;;;;;;;5.60;2.42;;;;;;;14.83;95.36;93085.66;2112301;28;20030;-79
2022/07/27 02:06:29;;;;;;;2.58;1.75;;;;;;;14.82;95.42;93086.84;2097262;28;20107;-79
2022/07/27 02:07:30;;;;;;;3.15;2.10;;;;;;;14.89;95.78;93079.72;2105318;28;20097;-79
2022/07/27 02:08:33;;;;;;;5.05;2.40;;;;;;;14.89;95.51;93080.47;2113971;27;20498;-79
2022/07/27 02:09:34;;;;;;;3.75;1.75;;;;;;;14.93;94.71;93078.38;2120914;27;20097;-79
2022/07/27 02:10:36;;;;;;;2.65;1.70;;;;;;;14.97;94.33;93075.53;2099307;28;20070;-79
2022/07/27 02:12:56;;;;;;;5.75;2.15;;;;;;;14.77;97.60;93073.22;2104165;28;20485;-79
2022/07/27 02:13:57;;;;;;;3.72;1.88;;;;;;;14.61;98.94;93080.34;2103667;28;20028;-79
2022/07/27 02:14:58;;;;;;;5.47;2.17;;;;;;;14.70;97.57;93084.25;2113605;28;20031;-79
2022/07/27 02:16:00;;;;;;;1.73;1.60;;;;;;;14.68;97.72;93079.34;2105388;28;20040;-79
2022/07/27 02:17:00;;;;;;;4.47;1.90;;;;;;;14.63;97.97;93081.84;2096894;28;20078;-79
2022/07/27 02:18:04;;;;;;;2.55;2.22;;;;;;;14.50;98.87;93085.38;2113812;28;20028;-79
2022/07/27 02:19:05;;;;;;;3.45;2.35;;;;;;;14.40;100.00;93086.50;2113411;28;20384;-79
2022/07/27 02:20:08;;;;;;;2.15;1.63;;;;;;;14.41;100.00;93082.63;2096921;28;20025;-79
2022/07/27 02:21:09;;;;;;;2.95;1.75;;;;;;;14.42;99.37;93086.81;2097004;28;20020;-79
2022/07/27 02:22:10;;;;;;;3.03;1.80;;;;;;;14.45;98.99;93085.19;2096872;28;20031;-79
2022/07/27 02:23:11;;;;;;;2.35;1.80;;;;;;;14.45;98.46;93080.56;2097055;28;20029;-79
2022/07/27 02:24:12;;;;;;;4.25;2.05;;;;;;;14.46;98.99;93084.72;2096892;28;20035;-78
2022/07/27 02:25:15;;;;;;;3.60;1.83;;;;;;;14.46;98.84;93090.13;2092602;28;20115;-79
2022/07/27 02:26:16;;;;;;;4.82;2.28;;;;;;;14.31;100.00;93079.13;2105134;28;20114;-79
2022/07/27 02:27:17;;;;;;;4.13;1.90;;;;;;;14.23;100.00;93077.16;2113603;28;20059;-79
2022/07/27 02:28:18;;;;;;;4.90;2.30;;;;;;;14.15;100.00;93079.34;2096994;28;20516;-79
2022/07/27 02:29:19;;;;;;;2.97;2.15;;;;;;;14.18;100.00;93085.75;2088709;28;20021;-79
2022/07/27 02:30:19;;;;;;;4.25;2.20;;;;;;;14.18;100.00;93083.84;2096646;28;20017;-79
2022/07/27 02:31:20;;;;;;;4.97;1.90;;;;;;;14.24;100.00;93084.03;2080542;28;20029;-79
2022/07/27 02:32:21;;;;;;;5.70;1.90;;;;;;;14.28;100.00;93085.38;2087516;28;20068;-79
2022/07/27 02:33:22;;;;;;;3.58;1.92;;;;;;;14.23;100.00;93083.28;2096165;28;20032;-79
2022/07/27 02:34:23;;;;;;;2.63;1.90;;;;;;;14.29;100.00;93086.13;2096950;28;20020;-79
2022/07/27 02:35:24;;;;;;;3.28;1.80;;;;;;;14.33;100.00;93084.06;2104795;28;20028;-79
2022/07/27 02:36:27;;;;;;;4.78;2.05;;;;;;;14.40;100.00;93080.34;2105333;28;20023;-78
2022/07/27 02:37:29;;;;;;;4.90;1.80;;;;;;;14.44;100.00;93083.66;2105456;28;20023;-79
2022/07/27 02:38:36;;;;;;;3.17;1.90;;;;;;;14.46;99.19;93084.72;2105316;28;20016;-78
2022/07/27 02:39:37;;;;;;;2.58;1.80;;;;;;;14.46;99.39;93082.03;2098711;28;20491;-78
2022/07/27 02:40:38;;;;;;;5.20;2.22;;;;;;;14.41;99.98;93082.63;2112414;28;20024;-79
2022/07/27 02:41:39;;;;;;;3.95;2.03;;;;;;;14.46;99.68;93084.00;2105176;28;20094;-78
2022/07/27 02:42:40;;;;;;;4.57;2.22;;;;;;;14.45;99.55;93079.81;2088541;28;20844;-79
2022/07/27 02:43:41;;;;;;;3.72;1.92;;;;;;;14.47;100.00;93078.16;2095446;28;20052;-78
2022/07/27 02:44:42;;;;;;;9.77;2.20;;;;;;;14.51;99.63;93084.19;2105271;28;20678;-79
2022/07/27 02:45:43;;;;;;;3.42;1.90;;;;;;;14.56;99.66;93085.53;2104791;28;20024;-79
2022/07/27 02:46:44;;;;;;;7.13;2.08;;;;;;;14.52;100.00;93079.56;2098990;28;20028;-78
2022/07/27 02:47:45;;;;;;;4.25;2.05;;;;;;;14.63;95.83;93084.53;2113520;28;20031;-78
2022/07/27 02:48:46;;;;;;;3.40;1.92;;;;;;;14.67;95.25;93087.84;2105050;28;20840;-79
2022/07/27 02:49:47;;;;;;;3.65;1.85;;;;;;;14.73;94.83;93075.31;2105317;28;20024;-79
2022/07/27 02:50:48;;;;;;;3.03;1.80;;;;;;;14.73;95.96;93075.31;2096525;28;20024;-79
2022/07/27 02:51:51;;;;;;;4.85;2.00;;;;;;;14.77;94.92;93073.97;2088715;28;20112;-79
2022/07/27 02:52:51;;;;;;;6.63;2.13;;;;;;;14.78;96.14;93074.72;2089120;28;20031;-79
2022/07/27 02:53:52;;;;;;;5.55;2.22;;;;;;;14.81;95.82;93079.22;2096821;28;20114;-79
2022/07/27 02:54:53;;;;;;;3.65;2.10;;;;;;;14.70;97.69;93070.81;2105421;28;20559;-79
2022/07/27 02:55:55;;;;;;;2.42;1.90;;;;;;;14.75;93.74;93073.69;2113461;28;20027;-79
2022/07/27 02:56:56;;;;;;;2.50;1.60;;;;;;;14.76;95.30;93071.75;2122838;28;20106;-78
2022/07/27 02:57:57;;;;;;;3.47;1.77;;;;;;;14.71;94.60;93075.75;2110986;28;20433;-79
2022/07/27 02:58:58;;;;;;;3.97;1.80;;;;;;;14.70;94.27;93070.81;2112388;28;20023;-79
2022/07/27 02:59:59;;;;;;;6.72;1.80;;;;;;;14.54;98.40;93074.50;2113126;28;20102;-79
2022/07/27 03:01:00;;;;;;;3.15;1.70;;;;;;;14.55;98.19;93065.22;2112096;28;20020;-79
2022/07/27 03:02:01;;;;;;;4.68;2.20;;;;;;;14.53;98.32;93067.59;2122734;28;20030;-79
2022/07/27 03:03:02;;;;;;;2.70;2.05;;;;;;;14.45;100.00;93064.41;2113578;28;20065;-79
2022/07/27 03:04:03;;;;;;;5.13;1.90;;;;;;;14.49;99.09;93070.44;2096806;28;20477;-78
2022/07/27 03:05:06;;;;;;;3.15;2.17;;;;;;;14.49;98.40;93064.31;2089769;28;20055;-79
2022/07/27 03:06:08;;;;;;;3.55;1.80;;;;;;;14.35;100.00;93066.31;2094345;28;20673;-78
2022/07/27 03:07:09;;;;;;;3.97;1.80;;;;;;;14.35;100.00;93062.84;2097066;28;20024;-79
2022/07/27 03:08:10;;;;;;;3.25;2.13;;;;;;;14.32;100.00;93066.44;2096838;28;20032;-79
2022/07/27 03:09:11;;;;;;;3.78;1.92;;;;;;;14.25;100.00;93070.13;2096745;28;20024;-79
2022/07/27 03:10:12;;;;;;;4.40;1.92;;;;;;;14.27;100.00;93067.00;2105147;28;20024;-79
2022/07/27 03:11:14;;;;;;;3.33;2.03;;;;;;;14.16;100.00;93066.63;2105146;28;20112;-79
2022/07/27 03:12:15;;;;;;;2.85;1.70;;;;;;;14.13;100.00;93064.81;2096911;28;20025;-79
2022/07/27 03:13:16;;;;;;;6.03;2.30;;;;;;;14.14;100.00;93061.72;2094723;28;20020;-79
2022/07/27 03:14:18;;;;;;;2.20;2.00;;;;;;;14.22;100.00;93070.25;2097658;28;20045;-79
2022/07/27 03:15:19;;;;;;;3.78;2.03;;;;;;;14.24;100.00;93068.63;2088538;28;20405;-79
2022/07/27 03:16:20;;;;;;;2.40;1.95;;;;;;;14.18;100.00;93069.63;2090606;28;20562;-79
2022/07/27 03:17:21;;;;;;;4.43;2.15;;;;;;;14.15;100.00;93070.53;2096882;28;20025;-78
2022/07/27 03:18:22;;;;;;;3.88;2.03;;;;;;;14.33;100.00;93062.56;2099758;28;20108;-79
2022/07/27 03:19:23;;;;;;;4.88;2.00;;;;;;;14.43;98.42;93064.09;2094776;28;20389;-79
2022/07/27 03:20:24;;;;;;;3.63;2.00;;;;;;;14.35;100.00;93069.00;2106100;28;20020;-79
2022/07/27 03:21:25;;;;;;;3.10;2.08;;;;;;;14.31;100.00;93063.00;2108120;28;20016;-79
2022/07/27 03:22:29;;;;;;;4.75;1.98;;;;;;;14.30;100.00;93060.75;2107986;28;20601;-79
2022/07/27 03:23:30;;;;;;;3.45;1.90;;;;;;;14.14;100.00;93064.41;2109537;27;20020;-78
2022/07/27 03:24:31;;;;;;;3.80;2.13;;;;;;;14.10;100.00;93061.09;2108135;28;20038;-79
2022/07/27 03:25:32;;;;;;;3.30;2.00;;;;;;;14.06;100.00;93060.47;2096546;28;20028;-79
2022/07/27 03:26:33;;;;;;;5.50;2.13;;;;;;;14.06;100.00;93060.47;2098227;28;20051;-79
2022/07/27 03:27:34;;;;;;;4.47;2.30;;;;;;;13.98;100.00;93064.59;2102062;28;20104;-78
2022/07/27 03:28:35;;;;;;;2.50;1.90;;;;;;;13.96;100.00;93067.72;2093359;28;20055;-79
2022/07/27 03:29:36;;;;;;;4.82;2.10;;;;;;;14.01;100.00;93063.72;2096652;28;20135;-79
2022/07/27 03:30:37;;;;;;;2.72;1.98;;;;;;;14.01;100.00;93055.66;2097451;28;20029;-79
2022/07/27 03:31:38;;;;;;;6.35;1.95;;;;;;;14.09;99.79;93057.66;2099258;28;20043;-79
2022/07/27 03:32:39;;;;;;;5.05;2.08;;;;;;;14.15;99.59;93057.09;2106859;28;20020;-79
2022/07/27 03:33:40;;;;;;;5.20;1.92;;;;;;;14.13;100.00;93060.19;2104019;27;20062;-79
2022/07/27 03:34:41;;;;;;;3.95;2.17;;;;;;;14.15;99.77;93057.81;2120849;27;20403;-78
2022/07/27 03:35:42;;;;;;;3.67;2.15;;;;;;;14.15;98.99;93057.09;2110622;28;20107;-78
2022/07/27 03:36:43;;;;;;;4.10;2.22;;;;;;;14.10;99.80;93063.78;2109570;28;20073;-78
2022/07/27 03:37:44;;;;;;;7.05;2.00;;;;;;;14.06;99.12;93061.22;2107020;28;20469;-78
2022/07/27 03:38:45;;;;;;;2.30;2.10;;;;;;;14.10;98.69;93059.16;2108543;28;20020;-78
2022/07/27 03:39:46;;;;;;;4.63;2.20;;;;;;;14.10;99.47;93058.41;2103125;28;20066;-78
2022/07/27 03:40:47;;;;;;;5.07;2.20;;;;;;;14.06;99.52;93055.09;2103709;28;20464;-78
2022/07/27 03:41:48;;;;;;;4.18;2.00;;;;;;;14.05;99.43;93058.97;2102078;28;20048;-79
2022/07/27 03:42:49;;;;;;;4.43;2.15;;;;;;;13.98;100.00;93057.28;2106658;28;20854;-78
2022/07/27 03:43:49;;;;;;;7.57;2.70;;;;;;;13.97;100.00;93049.66;2102832;28;20035;-77
2022/07/27 03:44:50;;;;;;;4.15;1.98;;;;;;;13.91;100.00;93051.41;2106975;28;20020;-77
2022/07/27 03:45:52;;;;;;;4.40;1.80;;;;;;;13.88;100.00;93050.34;2102119;28;20020;-78
2022/07/27 03:46:53;;;;;;;4.07;2.22;;;;;;;13.88;100.00;93053.03;2098624;28;20147;-79
2022/07/27 03:47:54;;;;;;;3.38;1.90;;;;;;;13.89;100.00;93053.78;2099371;28;20029;-79
2022/07/27 03:48:56;;;;;;;3.30;2.28;;;;;;;13.88;100.00;93052.28;2102406;28;20031;-79
2022/07/27 03:49:57;;;;;;;9.68;2.60;;;;;;;13.85;100.00;93049.28;2106168;28;20023;-79
2022/07/27 03:50:58;;;;;;;4.68;2.17;;;;;;;13.83;100.00;93053.59;2118336;27;20078;-78
2022/07/27 03:51:59;;;;;;;6.82;2.95;;;;;;;13.78;100.00;93052.22;2113501;28;20480;-78
2022/07/27 03:53:00;;;;;;;7.38;2.53;;;;;;;13.65;100.00;93056.13;2109915;28;20023;-79
2022/07/27 03:54:02;;;;;;;2.85;2.05;;;;;;;13.57;100.00;93052.97;2089561;28;20036;-79
2022/07/27 03:55:03;;;;;;;4.97;2.13;;;;;;;13.60;100.00;93055.50;2095865;28;20039;-79
2022/07/27 03:56:04;;;;;;;9.90;2.35;;;;;;;13.50;100.00;93053.19;2102284;28;20075;-79
2022/07/27 03:57:05;;;;;;;5.18;2.30;;;;;;;13.42;100.00;93055.38;2100744;28;20020;-78
2022/07/27 03:58:06;;;;;;;7.13;1.95;;;;;;;13.29;100.00;93057.34;2097651;28;20033;-78
2022/07/27 03:59:07;;;;;;;7.50;2.55;;;;;;;13.26;100.00;93061.66;2100708;28;20448;-78
2022/07/27 04:00:11;;;;;;;3.17;2.30;;;;;;;13.23;100.00;93061.78;2097742;28;20032;-79
2022/07/27 04:01:12;;;;;;;7.63;2.10;;;;;;;13.17;100.00;93050.81;2113509;27;20080;-78
2022/07/27 04:02:13;;;;;;;3.85;2.30;;;;;;;12.93;100.00;93061.16;2116243;27;20050;-78
2022/07/27 04:03:14;;;;;;;8.70;2.38;;;;;;;12.95;100.00;93058.78;2097460;28;20436;-78
2022/07/27 04:04:15;;;;;;;6.18;1.90;;;;;;;12.98;100.00;93060.59;2107266;28;20843;-78
2022/07/27 04:05:16;;;;;;;4.97;2.35;;;;;;;12.91;100.00;93063.53;2117177;27;20027;-79
2022/07/27 04:06:17;;;;;;;2.33;2.13;;;;;;;12.94;100.00;93065.31;2115199;27;20490;-79
2022/07/27 04:07:18;;;;;;;3.72;2.40;;;;;;;12.84;100.00;93058.38;2101642;28;20024;-78
2022/07/27 04:08:20;;;;;;;4.10;2.53;;;;;;;12.87;100.00;93064.81;2103896;28;20024;-79
2022/07/27 04:09:25;;;;;;;3.85;2.20;;;;;;;12.77;100.00;93067.38;2118988;27;20023;-78
2022/07/27 04:10:26;;;;;;;3.63;2.30;;;;;;;12.80;100.00;93061.16;2117060;27;20019;-78
2022/07/27 04:11:27;;;;;;;5.47;2.63;;;;;;;12.63;100.00;93065.13;2108253;28;20024;-79
2022/07/27 04:12:28;;;;;;;6.07;3.33;;;;;;;12.70;100.00;93069.53;2098865;28;20521;-79
2022/07/27 04:13:28;;;;;;;5.18;2.40;;;;;;;12.78;100.00;93060.09;2092193;28;20052;-79
2022/07/27 04:14:29;;;;;;;7.00;2.42;;;;;;;12.70;100.00;93056.88;2100659;28;20457;-78
2022/07/27 04:15:30;;;;;;;3.72;2.55;;;;;;;12.72;100.00;93057.19;2103052;28;20016;-79
2022/07/27 04:16:31;;;;;;;3.28;2.20;;;;;;;12.65;100.00;93062.78;2106131;28;20154;-78
2022/07/27 04:17:32;;;;;;;4.00;2.05;;;;;;;12.59;100.00;93065.25;2098591;28;20767;-78
2022/07/27 04:18:33;;;;;;;7.05;2.40;;;;;;;12.60;100.00;93058.72;2097765;28;20032;-79
2022/07/27 04:19:34;;;;;;;4.38;2.20;;;;;;;12.48;100.00;93056.03;2088507;28;20020;-78
2022/07/27 04:20:35;;;;;;;5.35;2.15;;;;;;;12.41;100.00;93065.03;2097443;28;20089;-78
2022/07/27 04:21:36;;;;;;;3.28;2.28;;;;;;;12.43;100.00;93062.69;2106704;28;20472;-78
2022/07/27 04:22:37;;;;;;;2.97;2.30;;;;;;;12.44;100.00;93063.44;2106206;28;20034;-78
2022/07/27 04:23:38;;;;;;;5.35;2.60;;;;;;;12.49;100.00;93062.88;2105584;28;20089;-78
2022/07/27 04:24:39;;;;;;;4.78;2.50;;;;;;;12.48;100.00;93066.75;2106191;28;20028;-78
2022/07/27 04:26:00;;;;;;;11.52;2.67;;;;;;;12.59;100.00;93062.56;2117056;27;20560;-78
2022/07/27 04:27:01;;;;;;;7.88;2.70;;;;;;;12.64;100.00;93063.94;2113362;27;20080;-78
2022/07/27 04:28:02;;;;;;;3.25;2.42;;;;;;;12.68;100.00;93069.22;2098452;28;20019;-78
2022/07/27 04:29:03;;;;;;;4.00;2.50;;;;;;;12.70;100.00;93069.53;2096518;28;20039;-78
2022/07/27 04:30:05;;;;;;;6.10;2.30;;;;;;;12.79;100.00;93064.28;2095916;28;20498;-79
2022/07/27 04:31:06;;;;;;;8.10;2.92;;;;;;;12.77;100.00;93066.63;2095565;28;20436;-79
2022/07/27 04:32:07;;;;;;;4.20;2.20;;;;;;;12.77;100.00;93061.25;2097412;28;20020;-79
2022/07/27 04:33:08;;;;;;;5.38;2.42;;;;;;;12.77;100.00;93062.00;2097530;28;20523;-79
2022/07/27 04:34:09;;;;;;;4.80;2.70;;;;;;;12.79;100.00;93064.28;2081353;28;20493;-78
2022/07/27 04:35:10;;;;;;;5.10;2.60;;;;;;;12.79;100.00;93064.28;2103044;28;20031;-78
2022/07/27 04:36:12;;;;;;;6.82;2.55;;;;;;;12.88;100.00;93063.63;2112800;28;20088;-78
2022/07/27 04:37:13;;;;;;;4.25;2.58;;;;;;;12.90;100.00;93066.63;2114507;27;20027;-78
2022/07/27 04:38:14;;;;;;;5.97;2.58;;;;;;;12.86;100.00;93072.09;2105372;28;20061;-78
2022/07/27 04:39:15;;;;;;;5.05;2.30;;;;;;;12.73;100.00;93072.13;2105833;28;20024;-78
2022/07/27 04:40:17;;;;;;;3.40;2.58;;;;;;;12.78;100.00;93074.25;2105529;28;20111;-78
2022/07/27 04:41:18;;;;;;;4.05;2.50;;;;;;;12.74;100.00;93075.56;2114550;27;20119;-79
2022/07/27 04:42:19;;;;;;;6.47;2.67;;;;;;;12.66;100.00;93071.59;2113932;28;20482;-78
2022/07/27 04:43:20;;;;;;;3.22;2.40;;;;;;;12.65;100.00;93068.16;2105457;28;20047;-79
2022/07/27 04:44:21;;;;;;;4.90;2.70;;;;;;;12.69;100.00;93074.16;2105832;28;20024;-79
2022/07/27 04:45:22;;;;;;;4.10;2.33;;;;;;;12.75;100.00;93074.38;2116723;27;20019;-79
2022/07/27 04:46:23;;;;;;;9.60;2.92;;;;;;;12.76;100.00;93073.19;2121097;27;20037;-78
2022/07/27 04:47:25;;;;;;;5.32;3.10;;;;;;;12.78;100.00;93079.63;2113315;27;20114;-78
2022/07/27 04:48:26;;;;;;;4.38;2.53;;;;;;;12.71;100.00;93074.47;2105156;28;20065;-78
2022/07/27 04:49:26;;;;;;;3.85;2.63;;;;;;;12.74;100.00;93081.66;2105983;28;20447;-78
2022/07/27 04:50:27;;;;;;;3.65;3.05;;;;;;;12.80;100.00;93085.28;2097169;28;20021;-78